Time;durP1;ratioP1;P1;durP2;ratioP2;P2;SDS_P1;SDS_P2;PMS_P1;PMS_P2;Temp;Humidity;BMP_temperature;BMP_pressure;BME280_temperature;BME280_humidity;BME280_pressure;Samples;Min_cycle;Max_cycle;Signal;HPM_P1;HPM_P2
2022/01/24 00:01:18;;;;;;;13.60;5.57;;;;;;;-5.52;nan;101918.97;5035018;28;20045;-71
2022/01/24 00:03:43;;;;;;;16.13;6.78;;;;;;;-5.68;nan;101899.25;5034066;28;20567;-70
2022/01/24 00:06:12;;;;;;;14.27;6.90;;;;;;;-5.68;nan;101911.25;5016206;28;20095;-72
2022/01/24 00:08:38;;;;;;;15.90;6.97;;;;;;;-5.71;nan;101914.81;5008977;28;20567;-72
2022/01/24 00:11:09;;;;;;;18.73;7.53;;;;;;;-5.70;nan;101923.34;5015613;28;20164;-71
2022/01/24 00:26:50;;;;;;;18.08;7.32;;;;;;;-5.94;nan;101934.00;5034657;28;20041;-72
2022/01/24 00:29:18;;;;;;;17.60;6.50;;;;;;;-6.10;nan;101926.28;5033811;28;20030;-72
2022/01/24 00:31:44;;;;;;;16.50;7.57;;;;;;;-6.08;nan;101931.31;5033809;28;20080;-73
2022/01/24 00:34:09;;;;;;;15.98;7.53;;;;;;;;;;5034952;28;20033;-72
2022/01/24 00:36:35;;;;;;;15.30;7.07;;;;;;;-6.11;nan;101954.56;5008111;28;20041;-72
2022/01/24 00:39:03;;;;;;;16.08;6.20;;;;;;;-6.19;nan;101949.00;5031325;28;20042;-72
2022/01/24 00:41:29;;;;;;;15.35;6.22;;;;;;;-6.25;nan;101940.72;5016516;28;20495;-71
2022/01/24 00:46:46;;;;;;;17.00;6.15;;;;;;;-6.15;nan;101963.31;5032366;28;20072;-72
2022/01/24 00:49:25;;;;;;;16.73;6.72;;;;;;;-6.26;nan;101951.06;5034179;28;20030;-72
2022/01/24 00:57:00;;;;;;;15.02;6.88;;;;;;;-6.29;nan;101956.34;5037923;28;20060;-73
2022/01/24 00:59:25;;;;;;;19.23;7.28;;;;;;;-6.25;nan;101968.06;5039785;28;20396;-72
2022/01/24 01:01:51;;;;;;;18.35;6.10;;;;;;;-6.39;nan;101953.41;5040459;28;20451;-72
2022/01/24 01:04:17;;;;;;;16.60;7.30;;;;;;;-6.34;nan;101960.88;5039798;28;20041;-73
2022/01/24 01:06:45;;;;;;;15.88;6.72;;;;;;;-6.45;nan;101957.09;5023152;28;20038;-71
2022/01/24 01:20:08;;;;;;;15.18;6.50;;;;;;;-6.61;nan;101966.44;5033438;28;20064;-72
2022/01/24 01:22:33;;;;;;;16.23;6.25;;;;;;;-6.68;nan;101960.78;5032186;28;20036;-71
2022/01/24 01:24:59;;;;;;;20.40;6.80;;;;;;;-6.86;nan;101936.88;5032980;28;20033;-73
2022/01/24 01:27:32;;;;;;;17.58;6.75;;;;;;;-6.87;nan;101939.50;5031606;28;20475;-72
2022/01/24 01:30:07;;;;;;;16.65;6.70;;;;;;;-6.79;nan;101969.91;5032779;28;20083;-73
2022/01/24 01:56:20;;;;;;;16.67;7.22;;;;;;;-7.24;nan;101956.63;5032436;28;20117;-72
2022/01/24 01:58:45;;;;;;;70.43;23.38;;;;;;;-7.14;nan;101977.50;5033041;28;20029;-72
2022/01/24 02:01:10;;;;;;;30.42;12.52;;;;;;;-7.11;nan;101985.03;5032648;28;20029;-73
2022/01/24 02:03:36;;;;;;;25.05;9.25;;;;;;;-7.12;nan;101979.09;5030514;28;20029;-73
2022/01/24 02:06:02;;;;;;;20.80;8.30;;;;;;;-7.21;nan;101976.13;5032481;28;20030;-72
2022/01/24 02:08:30;;;;;;;20.05;8.07;;;;;;;-7.30;nan;101972.28;5015097;28;20030;-72
2022/01/24 02:10:57;;;;;;;23.50;9.00;;;;;;;-7.43;nan;101979.66;5011684;28;20068;-72
2022/01/24 02:13:24;;;;;;;26.02;8.25;;;;;;;-7.47;nan;101967.06;5019226;28;20030;-73
2022/01/24 02:26:03;;;;;;;48.53;15.02;;;;;;;-7.51;nan;101986.88;5031753;28;20064;-74
2022/01/24 02:28:40;;;;;;;49.03;13.73;;;;;;;-7.49;nan;102008.94;5032550;28;20124;-74
2022/01/24 02:33:31;;;;;;;32.65;10.50;;;;;;;-7.60;nan;102000.06;5031897;28;20041;-74
2022/01/24 02:35:57;;;;;;;38.47;11.23;;;;;;;-7.58;nan;102009.31;5032282;28;20034;-73
2022/01/24 02:48:21;;;;;;;26.42;8.90;;;;;;;-7.93;nan;101962.28;5030713;28;20042;-73
2022/01/24 02:49:09;;;;;;;45.65;12.27;;;;;;;-7.65;nan;102028.41;5032217;28;20033;-72
2022/01/24 02:54:05;;;;;;;38.00;10.82;;;;;;;-7.71;nan;102026.09;5031671;28;20029;-72
2022/01/24 02:56:30;;;;;;;32.85;9.85;;;;;;;-7.71;nan;102029.50;5032056;28;20398;-72
2022/01/24 02:58:55;;;;;;;40.63;12.45;;;;;;;-7.79;nan;102020.50;4985599;28;20044;-72
2022/01/24 03:01:21;;;;;;;41.85;13.10;;;;;;;-7.76;nan;102028.84;5012753;28;20092;-73
2022/01/24 03:03:46;;;;;;;50.10;12.77;;;;;;;-7.86;nan;102017.38;5034517;28;20490;-73
2022/01/24 03:06:11;;;;;;;46.33;12.27;;;;;;;-7.83;nan;102021.50;5013152;28;20072;-72
2022/01/24 03:08:39;;;;;;;42.88;12.30;;;;;;;-7.78;nan;102040.91;5031338;28;20124;-72
2022/01/24 03:11:05;;;;;;;23.88;9.00;;;;;;;-7.83;nan;102041.97;5032255;28;20080;-72
2022/01/24 03:13:32;;;;;;;25.92;8.20;;;;;;;-7.78;nan;102047.72;5013860;28;20439;-72
2022/01/24 03:16:02;;;;;;;19.35;7.93;;;;;;;-7.84;nan;102043.69;5033527;28;20033;-73
2022/01/24 03:18:28;;;;;;;35.40;10.75;;;;;;;-7.79;nan;102052.00;5025899;28;20518;-73
2022/01/24 03:20:54;;;;;;;27.45;10.40;;;;;;;-7.88;nan;102037.03;5014623;28;20472;-73
2022/01/24 03:23:21;;;;;;;26.75;8.50;;;;;;;-7.80;nan;102058.03;5030881;28;20029;-72
2022/01/24 03:25:48;;;;;;;26.33;8.75;;;;;;;-7.81;nan;102052.97;5031560;28;20217;-72
2022/01/24 03:28:13;;;;;;;25.63;8.80;;;;;;;-7.87;nan;102056.63;5012313;28;20067;-72
2022/01/24 03:30:39;;;;;;;21.02;7.80;;;;;;;-7.99;nan;102040.06;5031673;28;20038;-72
2022/01/24 03:33:06;;;;;;;22.75;7.80;;;;;;;-7.89;nan;102047.34;5014174;28;20492;-72
2022/01/24 03:35:32;;;;;;;23.67;8.95;;;;;;;-7.89;nan;102055.84;5031799;28;20380;-73
2022/01/24 03:37:58;;;;;;;23.23;8.70;;;;;;;-7.94;nan;102061.16;5031379;28;20534;-73
2022/01/24 03:40:23;;;;;;;25.30;10.10;;;;;;;-7.92;nan;102067.03;5031541;28;20056;-71
2022/01/24 03:42:49;;;;;;;22.92;9.80;;;;;;;-7.97;nan;102068.13;5032157;28;20036;-72
2022/01/24 03:45:16;;;;;;;27.40;10.57;;;;;;;-7.96;nan;102065.50;5010396;28;20038;-71
2022/01/24 03:48:01;;;;;;;25.30;9.77;;;;;;;-8.01;nan;102064.03;5013147;28;20430;-72
2022/01/24 03:50:26;;;;;;;22.15;8.60;;;;;;;-8.06;nan;102061.66;5017188;28;20029;-72
2022/01/24 03:52:51;;;;;;;26.55;9.55;;;;;;;-8.18;nan;102044.28;5014231;28;20026;-74
2022/01/24 03:55:17;;;;;;;21.48;8.02;;;;;;;-8.09;nan;102056.69;5034310;28;20045;-73
2022/01/24 03:57:43;;;;;;;25.05;9.57;;;;;;;-8.07;nan;102056.59;5017341;28;20044;-71
2022/01/24 04:00:09;;;;;;;27.67;8.93;;;;;;;-8.07;nan;102059.16;5034261;28;20033;-73
2022/01/24 04:02:35;;;;;;;35.85;10.75;;;;;;;-8.13;nan;102043.19;5023773;28;20037;-72
2022/01/24 04:05:01;;;;;;;47.95;12.73;;;;;;;-8.05;nan;102060.75;5041876;28;20030;-72
2022/01/24 04:07:26;;;;;;;59.50;14.32;;;;;;;-8.14;nan;102059.44;5034101;28;20033;-74
2022/01/24 04:09:52;;;;;;;57.88;15.25;;;;;;;-8.12;nan;102051.69;5037452;28;20498;-72
2022/01/24 04:12:17;;;;;;;53.05;15.18;;;;;;;-8.20;nan;102046.91;5014964;28;20563;-72
2022/01/24 04:22:14;;;;;;;43.92;13.68;;;;;;;-8.22;nan;102088.75;5034954;28;20029;-72
2022/01/24 04:24:40;;;;;;;37.63;11.73;;;;;;;-8.29;nan;102074.53;5033530;28;20045;-73
2022/01/24 04:27:06;;;;;;;34.97;11.38;;;;;;;-8.54;nan;102031.31;5008490;28;20048;-72
2022/01/24 04:29:33;;;;;;;28.27;10.32;;;;;;;-8.25;nan;102088.88;5033896;28;20041;-72
2022/01/24 04:31:59;;;;;;;26.02;9.43;;;;;;;-8.21;nan;102090.38;5027407;28;20184;-73
2022/01/24 04:34:25;;;;;;;30.15;11.45;;;;;;;-8.21;nan;102087.84;5016244;28;20836;-73
2022/01/24 04:36:51;;;;;;;26.48;9.48;;;;;;;-8.27;nan;102073.59;5034431;28;20038;-72
2022/01/24 04:39:17;;;;;;;24.15;10.38;;;;;;;-8.25;nan;102083.75;5015233;28;20120;-72
2022/01/24 04:41:46;;;;;;;23.20;9.23;;;;;;;-8.28;nan;102089.81;5026950;28;20127;-72
2022/01/24 04:46:59;;;;;;;21.75;8.10;;;;;;;-8.32;nan;102085.72;5032571;28;19913;-73
2022/01/24 04:54:42;;;;;;;21.13;8.25;;;;;;;-8.21;nan;102103.16;5033099;28;20491;-73
2022/01/24 04:57:14;;;;;;;20.05;7.00;;;;;;;-8.14;nan;102107.13;5033031;28;20041;-72
2022/01/24 04:59:41;;;;;;;17.52;7.13;;;;;;;-8.07;nan;102112.84;5034530;28;20045;-72
2022/01/24 05:02:08;;;;;;;18.88;7.13;;;;;;;-8.14;nan;102108.00;5032862;28;20041;-73
2022/01/24 05:04:34;;;;;;;18.05;7.78;;;;;;;-8.21;nan;102098.91;5042697;28;20039;-73
2022/01/24 05:07:00;;;;;;;24.55;8.77;;;;;;;-8.24;nan;102109.22;5027534;28;20083;-72
2022/01/24 05:09:28;;;;;;;21.00;8.10;;;;;;;-8.28;nan;102101.75;5033022;28;20043;-72
2022/01/24 05:12:06;;;;;;;21.27;8.00;;;;;;;-8.20;nan;102127.84;5033430;28;20033;-72
2022/01/24 05:25:29;;;;;;;16.23;7.50;;;;;;;-8.24;nan;102121.19;4979110;28;20037;-72
2022/01/24 05:27:54;;;;;;;16.05;6.85;;;;;;;-8.15;nan;102133.59;5030540;28;20442;-72
2022/01/24 05:30:19;;;;;;;17.13;5.93;;;;;;;-8.06;nan;102135.78;5032110;28;20860;-72
2022/01/24 05:32:45;;;;;;;15.80;6.00;;;;;;;-7.96;nan;102139.63;5012507;28;20493;-72
2022/01/24 05:35:10;;;;;;;16.60;6.38;;;;;;;-7.89;nan;102149.63;5032835;28;20555;-72
2022/01/24 05:37:36;;;;;;;19.77;6.95;;;;;;;-7.88;nan;102139.31;5032488;28;20033;-73
2022/01/24 05:40:02;;;;;;;14.73;6.03;;;;;;;-7.77;nan;102146.56;5012066;28;20065;-72
2022/01/24 05:42:27;;;;;;;15.30;6.10;;;;;;;-7.74;nan;102142.16;5033528;28;20033;-73
2022/01/24 05:44:53;;;;;;;18.88;6.88;;;;;;;-7.61;nan;102145.03;5011990;28;20038;-73
2022/01/24 05:47:18;;;;;;;16.05;6.78;;;;;;;-7.57;nan;102159.34;5003073;28;20040;-72
2022/01/24 05:49:44;;;;;;;14.63;6.35;;;;;;;-7.46;nan;102176.00;5014656;28;20514;-72
2022/01/24 05:52:10;;;;;;;18.63;6.85;;;;;;;-7.42;nan;102177.50;5011666;28;20396;-72
2022/01/24 05:54:40;;;;;;;19.35;6.97;;;;;;;-7.48;nan;102168.38;5014127;28;20041;-72
2022/01/24 05:57:06;;;;;;;;;;;;;;;-7.40;nan;102191.91;5031677;28;20040;-73
2022/01/24 05:59:31;;;;;;;14.73;5.93;;;;;;;-7.47;nan;102180.25;5031634;28;20075;-72
2022/01/24 06:01:57;;;;;;;15.57;6.78;;;;;;;-7.40;nan;102191.06;5031477;28;20519;-72
2022/01/24 06:04:23;;;;;;;16.15;6.60;;;;;;;-7.43;nan;102189.47;5002513;28;20073;-72
2022/01/24 06:06:48;;;;;;;15.65;6.13;;;;;;;-7.49;nan;102182.06;5033281;28;20443;-72
2022/01/24 06:09:14;;;;;;;17.33;6.57;;;;;;;-7.49;nan;102180.34;5028409;28;20117;-72
2022/01/24 06:11:39;;;;;;;15.77;5.88;;;;;;;-7.37;nan;102202.03;4999203;28;20517;-72
2022/01/24 06:14:05;;;;;;;18.02;6.53;;;;;;;-7.47;nan;102182.00;5032380;28;20033;-72
2022/01/24 06:16:30;;;;;;;14.77;6.68;;;;;;;-7.53;nan;102183.91;5038431;28;20037;-73
2022/01/24 06:18:56;;;;;;;17.23;6.75;;;;;;;-7.47;nan;102195.59;5014957;28;20042;-72
2022/01/24 06:21:22;;;;;;;15.15;6.55;;;;;;;-7.39;nan;102206.38;5021018;28;20036;-73
2022/01/24 06:23:48;;;;;;;17.83;6.90;;;;;;;-7.46;nan;102199.84;5031825;28;20068;-73
2022/01/24 06:26:14;;;;;;;16.10;6.10;;;;;;;-7.38;nan;102212.31;5031906;28;20176;-74
2022/01/24 06:28:40;;;;;;;17.45;6.85;;;;;;;-7.37;nan;102217.38;5008554;28;20033;-73
2022/01/24 06:31:05;;;;;;;18.45;6.47;;;;;;;-7.34;nan;102221.53;5012027;28;20036;-72
2022/01/24 06:33:30;;;;;;;17.38;6.80;;;;;;;-7.32;nan;102215.47;5012780;28;20116;-73
2022/01/24 06:35:56;;;;;;;14.68;5.93;;;;;;;-7.28;nan;102217.00;5029266;28;20483;-73
2022/01/24 06:38:21;;;;;;;18.60;6.93;;;;;;;-7.20;nan;102219.22;5032009;28;20038;-72
2022/01/24 06:40:47;;;;;;;16.83;6.95;;;;;;;-7.15;nan;102222.44;5030930;28;20037;-72
2022/01/24 06:43:12;;;;;;;21.50;7.75;;;;;;;-7.06;nan;102229.72;5031969;28;20041;-73
2022/01/24 06:45:38;;;;;;;21.60;7.80;;;;;;;-6.95;nan;102241.22;5012820;28;20129;-73
2022/01/24 06:48:03;;;;;;;20.05;7.35;;;;;;;-6.92;nan;102239.38;5031297;28;21050;-73
2022/01/24 06:50:29;;;;;;;19.15;7.30;;;;;;;-6.83;nan;102256.06;5028749;28;20467;-74
2022/01/24 06:52:54;;;;;;;18.27;6.82;;;;;;;-6.80;nan;102247.41;5014078;28;20034;-71
2022/01/24 06:55:20;;;;;;;16.27;6.18;;;;;;;-6.68;nan;102267.38;5031554;28;20055;-72
2022/01/24 06:57:45;;;;;;;17.58;6.43;;;;;;;-6.60;nan;102265.31;5031623;28;20383;-72
2022/01/24 07:00:11;;;;;;;18.90;6.60;;;;;;;-6.56;nan;102264.28;4998524;28;20037;-73
2022/01/24 07:02:37;;;;;;;17.65;6.57;;;;;;;-6.37;nan;102279.66;5036953;28;20113;-72
2022/01/24 07:05:03;;;;;;;15.48;6.60;;;;;;;-6.39;nan;102262.69;5038319;28;20030;-74
2022/01/24 07:07:30;;;;;;;15.18;6.45;;;;;;;-6.32;nan;102258.94;5020856;28;20048;-73
2022/01/24 07:09:55;;;;;;;16.85;7.05;;;;;;;-6.27;nan;102262.16;5020327;28;20483;-74
2022/01/24 07:12:22;;;;;;;17.80;6.90;;;;;;;-6.18;nan;102266.00;5038262;28;20069;-72
2022/01/24 07:14:48;;;;;;;16.77;6.60;;;;;;;-6.20;nan;102260.97;5033013;28;20030;-73
2022/01/24 07:19:51;;;;;;;13.70;5.95;;;;;;;-6.03;nan;102270.47;5015645;28;20033;-74
2022/01/24 07:22:16;;;;;;;17.35;7.57;;;;;;;-5.90;nan;102275.81;5012725;28;20034;-73
2022/01/24 07:24:42;;;;;;;17.77;6.38;;;;;;;-5.81;nan;102277.94;4997510;28;20036;-74
2022/01/24 07:27:07;;;;;;;17.90;7.50;;;;;;;-5.81;nan;102270.25;5030830;28;20048;-73
2022/01/24 07:29:33;;;;;;;17.35;6.70;;;;;;;-5.66;nan;102284.91;5035445;28;20029;-73
2022/01/24 07:31:59;;;;;;;14.98;6.40;;;;;;;-5.59;nan;102285.44;5035964;28;20083;-72
2022/01/24 07:34:24;;;;;;;17.63;6.93;;;;;;;-5.59;nan;102280.31;5034662;28;20122;-73
2022/01/24 07:36:51;;;;;;;18.65;6.90;;;;;;;-5.51;nan;102287.66;5014444;28;20041;-72
2022/01/24 07:39:17;;;;;;;17.15;6.75;;;;;;;-5.51;nan;102278.19;5034934;28;20464;-72
2022/01/24 07:41:46;;;;;;;14.90;6.30;;;;;;;-5.39;nan;102281.91;5018709;28;20087;-72
2022/01/24 07:44:13;;;;;;;16.15;7.00;;;;;;;-5.28;nan;102284.78;5034984;28;20106;-71
2022/01/24 07:46:39;;;;;;;15.85;6.07;;;;;;;-5.19;nan;102291.22;5034325;28;20091;-73
2022/01/24 07:49:10;;;;;;;16.15;6.45;;;;;;;-5.17;nan;102284.25;5026508;28;20581;-72
2022/01/24 07:51:36;;;;;;;10.73;5.55;;;;;;;-4.99;nan;102296.19;5002146;28;20087;-72
2022/01/24 07:54:02;;;;;;;14.65;6.47;;;;;;;-4.90;nan;102296.66;5009895;28;20383;-70
2022/01/24 07:56:28;;;;;;;15.75;5.95;;;;;;;-4.93;nan;102289.94;5032733;28;20045;-73
2022/01/24 07:58:53;;;;;;;13.20;6.28;;;;;;;-4.76;nan;102307.06;5033204;28;20120;-72
2022/01/24 08:01:19;;;;;;;14.85;6.20;;;;;;;-4.86;nan;102270.72;5031286;28;20033;-72
2022/01/24 08:03:44;;;;;;;16.77;6.05;;;;;;;-4.83;nan;102280.00;5022386;28;20357;-73
2022/01/24 08:06:10;;;;;;;14.90;5.10;;;;;;;-4.57;nan;102310.34;4987020;28;20038;-73
2022/01/24 08:08:37;;;;;;;16.27;6.40;;;;;;;-4.51;nan;102312.59;5017752;28;20491;-71
2022/01/24 08:11:02;;;;;;;13.00;6.15;;;;;;;-4.47;nan;102310.69;5031535;28;20040;-71
2022/01/24 08:13:28;;;;;;;16.17;6.72;;;;;;;-4.42;nan;102307.91;5034767;28;20033;-72
2022/01/24 08:15:56;;;;;;;13.13;5.88;;;;;;;-4.31;nan;102303.00;5017090;28;20094;-71
2022/01/24 08:18:22;;;;;;;13.80;6.60;;;;;;;-4.23;nan;102324.00;5033836;28;20482;-74
2022/01/24 08:20:48;;;;;;;14.23;6.82;;;;;;;-4.21;nan;102327.34;5013228;28;20045;-75
2022/01/24 08:23:13;;;;;;;13.32;6.13;;;;;;;-4.15;nan;102332.16;5034330;28;20455;-73
2022/01/24 08:25:40;;;;;;;18.73;6.55;;;;;;;-4.02;nan;102336.63;5016906;28;20045;-75
2022/01/24 08:28:06;;;;;;;15.02;6.18;;;;;;;-3.95;nan;102335.38;5034934;28;20044;-74
2022/01/24 08:30:31;;;;;;;12.57;5.90;;;;;;;-3.97;nan;102314.91;5033705;28;20037;-73
2022/01/24 08:32:57;;;;;;;12.15;5.18;;;;;;;-3.87;nan;102338.41;5013370;28;20391;-74
2022/01/24 08:35:23;;;;;;;13.25;5.28;;;;;;;;;;5013119;28;20502;-71
2022/01/24 08:37:51;;;;;;;15.18;6.55;;;;;;;;;;5013431;28;20049;-72
2022/01/24 08:40:24;;;;;;;13.80;6.15;;;;;;;;;;5033443;28;20124;-71
2022/01/24 08:42:57;;;;;;;13.48;6.57;;;;;;;;;;5034263;28;20124;-75
2022/01/24 08:48:29;;;;;;;18.02;6.70;;;;;;;;;;4953644;28;20118;-75
2022/01/24 08:50:55;;;;;;;15.50;7.20;;;;;;;;;;4954261;29;20039;-75
2022/01/24 08:53:23;;;;;;;15.63;6.15;;;;;;;;;;4937713;29;20434;-72
2022/01/24 08:55:48;;;;;;;14.02;6.38;;;;;;;;;;4952483;28;20417;-74
2022/01/24 08:58:14;;;;;;;14.07;5.05;;;;;;;;;;4950589;29;20036;-73
2022/01/24 09:00:41;;;;;;;14.90;6.45;;;;;;;;;;4946705;29;20042;-72
2022/01/24 09:03:06;;;;;;;14.68;6.95;;;;;;;;;;4934454;29;20043;-73
2022/01/24 09:05:35;;;;;;;16.45;6.70;;;;;;;;;;4938276;29;20510;-72
2022/01/24 09:08:00;;;;;;;12.45;6.78;;;;;;;;;;4943367;29;20095;-70
2022/01/24 09:10:26;;;;;;;16.88;7.47;;;;;;;;;;4945263;29;20043;-70
2022/01/24 09:12:51;;;;;;;17.15;6.53;;;;;;;;;;4953117;29;20036;-70
2022/01/24 09:15:16;;;;;;;14.10;5.72;;;;;;;;;;4951942;28;20097;-70
2022/01/24 09:17:43;;;;;;;20.00;6.50;;;;;;;;;;4965649;28;20037;-71
2022/01/24 09:20:09;;;;;;;13.10;5.47;;;;;;;;;;5006735;28;20267;-68
2022/01/24 09:22:34;;;;;;;14.35;5.47;;;;;;;;;;5021678;28;20075;-70
2022/01/24 09:25:00;;;;;;;11.43;5.45;;;;;;;;;;5032960;28;20119;-74
2022/01/24 09:27:25;;;;;;;16.92;6.63;;;;;;;;;;5033303;28;20041;-74
2022/01/24 09:29:51;;;;;;;17.88;5.72;;;;;;;;;;5015134;28;20658;-73
2022/01/24 09:32:16;;;;;;;11.48;6.18;;;;;;;;;;5033642;28;20041;-73
2022/01/24 09:34:41;;;;;;;23.70;6.20;;;;;;;;;;5013221;28;20072;-70
2022/01/24 09:37:06;;;;;;;13.02;6.13;;;;;;;;;;5032911;28;20278;-70
2022/01/24 09:39:32;;;;;;;11.77;5.77;;;;;;;;;;5031561;28;20036;-70
2022/01/24 09:41:57;;;;;;;15.57;6.07;;;;;;;;;;5014446;28;20771;-70
2022/01/24 09:44:22;;;;;;;12.32;6.13;;;;;;;;;;5031374;28;20033;-70
2022/01/24 09:46:47;;;;;;;12.27;6.20;;;;;;;;;;5023497;28;20044;-69
2022/01/24 09:49:13;;;;;;;13.32;5.93;;;;;;;;;;5031805;28;20127;-69
2022/01/24 09:51:39;;;;;;;12.63;5.72;;;;;;;;;;5008832;28;20040;-69
2022/01/24 09:54:05;;;;;;;12.73;6.25;;;;;;;;;;5032386;28;20033;-69
2022/01/24 09:56:31;;;;;;;11.73;5.43;;;;;;;-2.49;nan;102397.63;5032067;28;20044;-69
2022/01/24 09:58:56;;;;;;;13.20;5.28;;;;;;;-2.63;nan;102364.06;5030602;28;20041;-69
2022/01/24 10:01:23;;;;;;;13.77;6.78;;;;;;;-2.50;nan;102384.78;5001185;28;20117;-69
2022/01/24 10:04:15;;;;;;;12.25;6.03;;;;;;;-2.43;nan;102386.91;5026759;28;20033;-69
2022/01/24 10:06:59;;;;;;;16.23;7.60;;;;;;;-2.40;nan;102370.41;5010750;28;20124;-69
2022/01/24 10:09:38;;;;;;;32.13;14.15;;;;;;;-2.31;nan;102377.63;5028573;28;20103;-69
2022/01/24 10:12:29;;;;;;;21.10;9.02;;;;;;;-2.26;nan;102377.34;5028047;28;20033;-69
2022/01/24 10:17:42;;;;;;;16.42;5.78;;;;;;;-2.29;nan;102367.22;5028371;28;20038;-69
2022/01/24 10:20:25;;;;;;;11.15;5.38;;;;;;;-2.30;nan;102381.84;5032693;28;20037;-69
2022/01/24 10:23:22;;;;;;;15.88;5.78;;;;;;;-2.27;nan;102391.19;5006396;28;20035;-69
2022/01/24 10:26:00;;;;;;;16.27;6.10;;;;;;;-2.22;nan;102378.81;5021135;28;20041;-69
2022/01/24 10:28:33;;;;;;;15.80;5.72;;;;;;;-2.19;nan;102370.91;5029913;28;20119;-69
2022/01/24 10:31:07;;;;;;;14.40;6.20;;;;;;;-2.26;nan;102351.53;5016914;28;20029;-69
2022/01/24 10:34:00;;;;;;;15.25;5.78;;;;;;;-2.28;nan;102346.47;5027688;28;20030;-69
2022/01/24 10:36:37;;;;;;;11.68;5.70;;;;;;;-2.13;nan;102383.44;5029492;28;20029;-68
2022/01/24 10:39:22;;;;;;;9.18;5.15;;;;;;;-2.14;nan;102379.19;5013471;28;20042;-70
2022/01/24 10:42:30;;;;;;;11.27;5.80;;;;;;;-2.23;nan;102356.50;5028069;28;20075;-71
2022/01/24 10:44:58;;;;;;;16.48;6.45;;;;;;;-2.08;nan;102377.97;5009626;28;20033;-70
2022/01/24 10:47:28;;;;;;;15.10;6.03;;;;;;;-2.10;nan;102367.75;5029049;28;20033;-70
2022/01/24 10:49:54;;;;;;;11.30;5.95;;;;;;;-2.07;nan;102371.91;5005117;28;20091;-69
2022/01/24 10:52:40;;;;;;;11.55;5.80;;;;;;;-2.08;nan;102375.38;5007397;28;20022;-70
2022/01/24 10:55:16;;;;;;;12.20;5.45;;;;;;;-2.05;nan;102372.66;5002041;28;20152;-69
2022/01/24 10:57:45;;;;;;;13.43;5.85;;;;;;;-2.07;nan;102370.16;5010066;28;20041;-69
2022/01/24 11:00:24;;;;;;;14.32;6.18;;;;;;;-1.97;nan;102385.91;5024686;28;20045;-70
2022/01/24 11:02:51;;;;;;;9.88;5.20;;;;;;;-2.03;nan;102369.03;5027841;28;20033;-73
2022/01/24 11:05:19;;;;;;;16.58;6.43;;;;;;;-1.84;nan;102373.09;5026558;28;20390;-70
2022/01/24 11:08:05;;;;;;;11.23;5.63;;;;;;;-1.84;nan;102379.06;5031531;28;20438;-69
2022/01/24 11:10:40;;;;;;;12.18;6.15;;;;;;;-1.72;nan;102385.22;5031547;28;20505;-69
2022/01/24 11:13:06;;;;;;;13.25;5.75;;;;;;;-1.74;nan;102387.06;5026339;28;20056;-69
2022/01/24 11:15:34;;;;;;;12.25;6.35;;;;;;;-1.86;nan;102370.59;5029542;28;20075;-69
2022/01/24 11:18:01;;;;;;;12.38;6.05;;;;;;;-1.85;nan;102368.81;5031014;28;20043;-69
2022/01/24 11:20:31;;;;;;;13.32;5.88;;;;;;;-1.76;nan;102382.00;5027513;28;20447;-69
2022/01/24 11:23:01;;;;;;;12.32;5.43;;;;;;;-1.76;nan;102384.56;5015715;28;20030;-68
2022/01/24 11:25:29;;;;;;;17.15;6.72;;;;;;;-1.86;nan;102360.25;5025988;28;20134;-72
2022/01/24 11:27:56;;;;;;;13.50;6.32;;;;;;;-1.85;nan;102361.91;4997621;28;20040;-69
2022/01/24 11:30:40;;;;;;;15.20;7.40;;;;;;;-1.67;nan;102388.34;5028203;28;20043;-70
2022/01/24 11:33:12;;;;;;;12.40;5.70;;;;;;;-1.67;nan;102382.38;5008618;28;20034;-69
2022/01/24 11:35:51;;;;;;;14.02;6.38;;;;;;;-1.65;nan;102381.34;5010626;28;20172;-69
2022/01/24 11:38:43;;;;;;;14.80;6.20;;;;;;;-1.60;nan;102383.63;5009310;28;20112;-71
2022/01/24 11:41:23;;;;;;;12.88;5.85;;;;;;;-1.59;nan;102372.38;5027318;28;20103;-69
2022/01/24 11:43:55;;;;;;;12.50;5.78;;;;;;;-1.47;nan;102381.09;5025544;28;20034;-68
2022/01/24 11:46:30;;;;;;;14.00;5.85;;;;;;;-1.39;nan;102378.84;5030127;28;20037;-67
2022/01/24 11:49:11;;;;;;;12.00;5.72;;;;;;;-1.38;nan;102372.78;5031939;28;20034;-69
2022/01/24 11:51:38;;;;;;;14.65;5.95;;;;;;;-1.36;nan;102371.75;5030922;28;20042;-69
2022/01/24 11:54:24;;;;;;;12.05;6.60;;;;;;;-1.43;nan;102357.56;5028984;28;20034;-68
2022/01/24 11:57:30;;;;;;;13.38;5.32;;;;;;;-1.29;nan;102379.94;5030186;28;20092;-69
2022/01/24 12:00:02;;;;;;;15.90;6.25;;;;;;;-1.26;nan;102382.31;4984345;28;20037;-70
2022/01/24 12:02:29;;;;;;;11.98;5.75;;;;;;;-1.26;nan;102389.25;5009548;28;20026;-69
2022/01/24 12:05:09;;;;;;;11.52;6.05;;;;;;;-1.40;nan;102372.03;5046360;28;20036;-68
2022/01/24 12:07:43;;;;;;;11.38;5.85;;;;;;;-1.26;nan;102389.25;5030856;28;20064;-69
2022/01/24 12:10:21;;;;;;;12.60;5.78;;;;;;;-1.24;nan;102388.22;5012936;28;20033;-69
2022/01/24 12:12:50;;;;;;;13.65;6.03;;;;;;;-1.24;nan;102372.72;5014724;28;20029;-69
2022/01/24 12:15:37;;;;;;;20.85;5.85;;;;;;;-1.19;nan;102385.34;5034419;28;20427;-68
2022/01/24 12:18:18;;;;;;;10.70;5.22;;;;;;;-1.24;nan;102382.22;5034324;28;20475;-72
2022/01/24 12:20:47;;;;;;;12.57;5.47;;;;;;;-1.19;nan;102381.00;5034746;28;20116;-70
2022/01/24 12:23:16;;;;;;;11.23;5.22;;;;;;;-1.15;nan;102384.19;5034066;28;20026;-69
2022/01/24 12:25:53;;;;;;;15.38;6.35;;;;;;;-1.12;nan;102382.25;5033166;28;20388;-70
2022/01/24 12:28:21;;;;;;;13.10;6.22;;;;;;;-1.08;nan;102382.88;5010891;28;20037;-69
2022/01/24 12:31:03;;;;;;;11.60;5.90;;;;;;;-1.02;nan;102379.91;5034289;28;20072;-69
2022/01/24 12:33:29;;;;;;;14.05;5.85;;;;;;;-1.01;nan;102384.13;5032325;28;20025;-68
2022/01/24 12:35:54;;;;;;;13.65;6.22;;;;;;;-1.03;nan;102375.66;5032235;28;20749;-69
2022/01/24 12:38:20;;;;;;;14.80;7.43;;;;;;;-1.22;nan;102350.19;5033437;28;20034;-70
2022/01/24 12:40:45;;;;;;;13.77;7.05;;;;;;;-1.07;nan;102379.38;5015529;28;20483;-69
2022/01/24 12:43:19;;;;;;;16.17;7.18;;;;;;;-1.26;nan;102342.72;5033833;28;20031;-69
2022/01/24 12:48:30;;;;;;;19.15;6.38;;;;;;;-1.02;nan;102363.56;5034129;28;20033;-70
2022/01/24 12:50:55;;;;;;;13.25;5.82;;;;;;;-0.99;nan;102355.59;5015735;28;20179;-69
2022/01/24 12:53:22;;;;;;;9.52;5.38;;;;;;;-0.99;nan;102353.00;5012681;28;20109;-69
2022/01/24 12:55:59;;;;;;;8.93;5.00;;;;;;;-0.86;nan;102369.38;4993702;28;20126;-69
2022/01/24 12:58:37;;;;;;;9.15;4.82;;;;;;;-1.37;nan;102297.72;5003160;28;20050;-69
2022/01/24 13:01:23;;;;;;;11.95;5.22;;;;;;;-0.95;nan;102367.41;5006861;28;20088;-69
2022/01/24 13:03:48;;;;;;;12.88;6.13;;;;;;;-0.85;nan;102378.78;5012797;28;20049;-69
2022/01/24 13:06:15;;;;;;;12.82;6.35;;;;;;;-0.91;nan;102366.25;5010334;28;20140;-69
2022/01/24 13:09:09;;;;;;;24.15;8.02;;;;;;;-0.93;nan;102356.03;5011556;28;20069;-70
2022/01/24 13:11:44;;;;;;;10.40;4.90;;;;;;;-0.84;nan;102357.16;5011905;28;20037;-72
2022/01/24 13:14:14;;;;;;;18.15;7.63;;;;;;;-0.74;nan;102370.31;5013183;28;20123;-72
2022/01/24 13:25:23;;;;;;;13.23;5.60;;;;;;;-0.58;nan;102378.69;5014229;28;20045;-75
2022/01/24 13:27:52;;;;;;;12.70;5.13;;;;;;;-0.54;nan;102381.94;5013688;28;20045;-76
2022/01/24 13:30:42;;;;;;;20.53;8.10;;;;;;;-0.47;nan;102383.16;5013324;28;20041;-74
2022/01/24 13:33:22;;;;;;;27.25;9.25;;;;;;;-0.50;nan;102371.28;4994608;28;20292;-75
2022/01/24 13:35:53;;;;;;;22.55;9.30;;;;;;;-0.39;nan;102380.88;5010738;28;20243;-75
2022/01/24 13:38:22;;;;;;;25.92;9.88;;;;;;;-0.50;nan;102365.28;5012910;28;20369;-75
2022/01/24 13:43:28;;;;;;;21.17;8.52;;;;;;;-0.47;nan;102399.53;5012586;28;20041;-70
2022/01/24 13:45:53;;;;;;;18.55;8.88;;;;;;;-0.53;nan;102388.75;5012823;28;20791;-70
2022/01/24 13:48:20;;;;;;;18.85;9.23;;;;;;;-0.54;nan;102400.03;5010743;28;20026;-69
2022/01/24 13:50:58;;;;;;;25.63;9.63;;;;;;;-0.75;nan;102384.19;5011410;28;20041;-70
2022/01/24 13:53:39;;;;;;;19.75;9.82;;;;;;;-0.71;nan;102409.75;5012703;28;20034;-70
2022/01/24 13:56:15;;;;;;;20.42;9.73;;;;;;;-0.80;nan;102397.41;5028993;28;20041;-70
2022/01/24 13:58:41;;;;;;;20.38;9.60;;;;;;;-0.87;nan;102402.16;5033054;28;20034;-69
2022/01/24 14:01:06;;;;;;;20.05;9.57;;;;;;;-0.98;nan;102391.72;5024316;28;20036;-70
2022/01/24 14:03:31;;;;;;;24.25;10.13;;;;;;;-0.95;nan;102411.38;5008493;28;20116;-70
2022/01/24 14:06:17;;;;;;;20.92;9.45;;;;;;;-0.96;nan;102414.84;5020627;28;20037;-70